sensor_id;sensor_type;location;lat;lon;timestamp;P1;durP1;ratioP1;P2;durP2;ratioP2
22080;SDS011;11207;59.512;18.050;2023-02-01T00:01:47;9.83;;;7.23;;
22080;SDS011;11207;59.512;18.050;2023-02-01T00:04:12;10.77;;;8.03;;
22080;SDS011;11207;59.512;18.050;2023-02-01T00:06:38;14.37;;;7.67;;
22080;SDS011;11207;59.512;18.050;2023-02-01T00:09:04;10.77;;;7.57;;
22080;SDS011;11207;59.512;18.050;2023-02-01T00:11:29;15.33;;;7.87;;
22080;SDS011;11207;59.512;18.050;2023-02-01T00:13:56;9.30;;;7.40;;
22080;SDS011;11207;59.512;18.050;2023-02-01T00:16:22;17.93;;;8.17;;
22080;SDS011;11207;59.512;18.050;2023-02-01T00:18:51;16.03;;;8.67;;
22080;SDS011;11207;59.512;18.050;2023-02-01T00:21:18;11.73;;;8.23;;
22080;SDS011;11207;59.512;18.050;2023-02-01T00:23:45;13.07;;;8.73;;
22080;SDS011;11207;59.512;18.050;2023-02-01T00:26:15;10.03;;;7.50;;
22080;SDS011;11207;59.512;18.050;2023-02-01T00:28:43;10.73;;;7.30;;
22080;SDS011;11207;59.512;18.050;2023-02-01T00:31:09;10.47;;;7.60;;
22080;SDS011;11207;59.512;18.050;2023-02-01T00:33:34;11.43;;;7.03;;
22080;SDS011;11207;59.512;18.050;2023-02-01T00:36:00;8.83;;;7.23;;
22080;SDS011;11207;59.512;18.050;2023-02-01T00:38:28;10.97;;;7.57;;
22080;SDS011;11207;59.512;18.050;2023-02-01T00:40:54;13.23;;;7.67;;
22080;SDS011;11207;59.512;18.050;2023-02-01T00:43:30;11.00;;;7.03;;
22080;SDS011;11207;59.512;18.050;2023-02-01T00:45:56;14.03;;;8.03;;
22080;SDS011;11207;59.512;18.050;2023-02-01T00:48:23;11.37;;;7.57;;
22080;SDS011;11207;59.512;18.050;2023-02-01T00:50:50;10.80;;;7.20;;
22080;SDS011;11207;59.512;18.050;2023-02-01T00:53:15;10.53;;;7.70;;
22080;SDS011;11207;59.512;18.050;2023-02-01T00:55:44;11.73;;;7.50;;
22080;SDS011;11207;59.512;18.050;2023-02-01T00:58:10;10.23;;;7.43;;
22080;SDS011;11207;59.512;18.050;2023-02-01T01:00:36;13.00;;;7.50;;
22080;SDS011;11207;59.512;18.050;2023-02-01T01:03:02;17.43;;;8.47;;
22080;SDS011;11207;59.512;18.050;2023-02-01T01:05:27;9.57;;;8.13;;
22080;SDS011;11207;59.512;18.050;2023-02-01T01:07:53;12.80;;;7.43;;
22080;SDS011;11207;59.512;18.050;2023-02-01T01:10:19;10.83;;;7.63;;
22080;SDS011;11207;59.512;18.050;2023-02-01T01:12:45;9.00;;;6.90;;
22080;SDS011;11207;59.512;18.050;2023-02-01T01:15:10;11.80;;;7.13;;
22080;SDS011;11207;59.512;18.050;2023-02-01T01:17:36;11.03;;;7.50;;
22080;SDS011;11207;59.512;18.050;2023-02-01T01:20:02;11.53;;;7.27;;
22080;SDS011;11207;59.512;18.050;2023-02-01T01:22:28;8.60;;;6.47;;
22080;SDS011;11207;59.512;18.050;2023-02-01T01:24:54;7.67;;;6.27;;
22080;SDS011;11207;59.512;18.050;2023-02-01T01:27:20;8.87;;;6.60;;
22080;SDS011;11207;59.512;18.050;2023-02-01T01:29:49;9.67;;;7.20;;
22080;SDS011;11207;59.512;18.050;2023-02-01T01:32:14;8.60;;;7.00;;
22080;SDS011;11207;59.512;18.050;2023-02-01T01:34:40;8.00;;;7.07;;
22080;SDS011;11207;59.512;18.050;2023-02-01T01:37:06;8.73;;;6.97;;
22080;SDS011;11207;59.512;18.050;2023-02-01T01:39:31;11.33;;;7.03;;
22080;SDS011;11207;59.512;18.050;2023-02-01T01:41:57;10.60;;;7.43;;
22080;SDS011;11207;59.512;18.050;2023-02-01T01:47:28;10.50;;;8.00;;
22080;SDS011;11207;59.512;18.050;2023-02-01T01:49:58;12.60;;;7.87;;
22080;SDS011;11207;59.512;18.050;2023-02-01T01:52:25;18.73;;;8.70;;
22080;SDS011;11207;59.512;18.050;2023-02-01T01:54:51;16.77;;;9.47;;
22080;SDS011;11207;59.512;18.050;2023-02-01T01:57:20;15.83;;;9.27;;
22080;SDS011;11207;59.512;18.050;2023-02-01T02:00:30;18.07;;;9.93;;
22080;SDS011;11207;59.512;18.050;2023-02-01T02:02:50;17.57;;;9.50;;
22080;SDS011;11207;59.512;18.050;2023-02-01T02:05:21;19.77;;;10.23;;
22080;SDS011;11207;59.512;18.050;2023-02-01T02:07:49;20.40;;;9.33;;
22080;SDS011;11207;59.512;18.050;2023-02-01T02:10:18;13.80;;;9.07;;
22080;SDS011;11207;59.512;18.050;2023-02-01T02:12:44;15.70;;;8.90;;
22080;SDS011;11207;59.512;18.050;2023-02-01T02:15:11;13.00;;;7.53;;
22080;SDS011;11207;59.512;18.050;2023-02-01T02:17:42;9.60;;;6.33;;
22080;SDS011;11207;59.512;18.050;2023-02-01T02:20:22;9.47;;;6.50;;
22080;SDS011;11207;59.512;18.050;2023-02-01T02:34:22;10.37;;;7.07;;
22080;SDS011;11207;59.512;18.050;2023-02-01T02:37:11;12.03;;;7.00;;
22080;SDS011;11207;59.512;18.050;2023-02-01T02:39:50;11.17;;;7.53;;
22080;SDS011;11207;59.512;18.050;2023-02-01T02:45:51;13.50;;;8.07;;
22080;SDS011;11207;59.512;18.050;2023-02-01T02:48:46;12.13;;;7.80;;
22080;SDS011;11207;59.512;18.050;2023-02-01T02:51:34;12.67;;;7.57;;
22080;SDS011;11207;59.512;18.050;2023-02-01T02:54:29;9.77;;;7.23;;
22080;SDS011;11207;59.512;18.050;2023-02-01T02:57:20;10.93;;;7.97;;
22080;SDS011;11207;59.512;18.050;2023-02-01T03:00:13;16.17;;;8.40;;
22080;SDS011;11207;59.512;18.050;2023-02-01T03:03:01;10.73;;;8.17;;
22080;SDS011;11207;59.512;18.050;2023-02-01T03:05:45;8.93;;;6.77;;
22080;SDS011;11207;59.512;18.050;2023-02-01T03:16:12;13.17;;;7.77;;
22080;SDS011;11207;59.512;18.050;2023-02-01T03:21:26;9.73;;;7.07;;
22080;SDS011;11207;59.512;18.050;2023-02-01T03:24:00;10.47;;;7.07;;
22080;SDS011;11207;59.512;18.050;2023-02-01T03:26:30;12.57;;;7.00;;
22080;SDS011;11207;59.512;18.050;2023-02-01T03:29:05;10.23;;;7.33;;
22080;SDS011;11207;59.512;18.050;2023-02-01T03:31:35;9.13;;;6.93;;
22080;SDS011;11207;59.512;18.050;2023-02-01T03:34:01;11.37;;;7.30;;
22080;SDS011;11207;59.512;18.050;2023-02-01T03:36:31;10.33;;;7.33;;
22080;SDS011;11207;59.512;18.050;2023-02-01T03:42:16;10.13;;;6.80;;
22080;SDS011;11207;59.512;18.050;2023-02-01T03:44:50;10.33;;;6.67;;
22080;SDS011;11207;59.512;18.050;2023-02-01T03:47:26;10.40;;;5.90;;
22080;SDS011;11207;59.512;18.050;2023-02-01T03:49:57;7.87;;;6.20;;
22080;SDS011;11207;59.512;18.050;2023-02-01T03:52:35;11.17;;;7.03;;
22080;SDS011;11207;59.512;18.050;2023-02-01T03:55:07;8.57;;;5.93;;
22080;SDS011;11207;59.512;18.050;2023-02-01T03:57:37;10.30;;;5.43;;
22080;SDS011;11207;59.512;18.050;2023-02-01T04:00:25;7.20;;;5.63;;
22080;SDS011;11207;59.512;18.050;2023-02-01T04:02:51;11.07;;;5.90;;
22080;SDS011;11207;59.512;18.050;2023-02-01T04:05:18;7.73;;;5.60;;
22080;SDS011;11207;59.512;18.050;2023-02-01T04:07:44;6.90;;;4.97;;
22080;SDS011;11207;59.512;18.050;2023-02-01T04:10:09;7.47;;;5.40;;
22080;SDS011;11207;59.512;18.050;2023-02-01T04:12:36;7.40;;;5.40;;
22080;SDS011;11207;59.512;18.050;2023-02-01T04:15:02;8.23;;;6.30;;
22080;SDS011;11207;59.512;18.050;2023-02-01T04:17:28;10.90;;;6.50;;
22080;SDS011;11207;59.512;18.050;2023-02-01T04:19:55;11.47;;;6.63;;
22080;SDS011;11207;59.512;18.050;2023-02-01T04:22:21;8.20;;;6.40;;
22080;SDS011;11207;59.512;18.050;2023-02-01T04:24:46;12.23;;;6.67;;
22080;SDS011;11207;59.512;18.050;2023-02-01T04:27:12;10.40;;;6.60;;
22080;SDS011;11207;59.512;18.050;2023-02-01T04:29:38;9.80;;;7.13;;
22080;SDS011;11207;59.512;18.050;2023-02-01T04:32:04;7.07;;;6.17;;
22080;SDS011;11207;59.512;18.050;2023-02-01T04:34:29;10.67;;;7.17;;
22080;SDS011;11207;59.512;18.050;2023-02-01T04:36:55;10.83;;;7.37;;
22080;SDS011;11207;59.512;18.050;2023-02-01T04:39:21;12.00;;;7.30;;
22080;SDS011;11207;59.512;18.050;2023-02-01T04:41:47;12.27;;;7.83;;
22080;SDS011;11207;59.512;18.050;2023-02-01T04:44:13;10.10;;;6.80;;
22080;SDS011;11207;59.512;18.050;2023-02-01T04:46:40;10.83;;;6.83;;
22080;SDS011;11207;59.512;18.050;2023-02-01T04:49:06;14.23;;;7.60;;
22080;SDS011;11207;59.512;18.050;2023-02-01T04:51:33;10.03;;;6.73;;
22080;SDS011;11207;59.512;18.050;2023-02-01T04:53:59;10.53;;;6.10;;
22080;SDS011;11207;59.512;18.050;2023-02-01T04:56:24;11.40;;;6.93;;
22080;SDS011;11207;59.512;18.050;2023-02-01T04:58:50;8.13;;;6.50;;
22080;SDS011;11207;59.512;18.050;2023-02-01T05:01:16;10.53;;;6.50;;
22080;SDS011;11207;59.512;18.050;2023-02-01T05:03:41;8.50;;;6.77;;
22080;SDS011;11207;59.512;18.050;2023-02-01T05:06:07;8.23;;;6.10;;
22080;SDS011;11207;59.512;18.050;2023-02-01T05:08:32;8.50;;;6.50;;
22080;SDS011;11207;59.512;18.050;2023-02-01T05:10:58;10.10;;;6.87;;
22080;SDS011;11207;59.512;18.050;2023-02-01T05:13:24;10.63;;;6.60;;
22080;SDS011;11207;59.512;18.050;2023-02-01T05:16:09;15.27;;;7.17;;
22080;SDS011;11207;59.512;18.050;2023-02-01T05:18:34;12.60;;;7.07;;
22080;SDS011;11207;59.512;18.050;2023-02-01T05:21:00;10.07;;;6.83;;
22080;SDS011;11207;59.512;18.050;2023-02-01T05:23:26;8.70;;;6.83;;
22080;SDS011;11207;59.512;18.050;2023-02-01T05:25:52;9.87;;;6.73;;
22080;SDS011;11207;59.512;18.050;2023-02-01T05:28:22;8.10;;;6.20;;
22080;SDS011;11207;59.512;18.050;2023-02-01T05:30:48;10.10;;;6.70;;
22080;SDS011;11207;59.512;18.050;2023-02-01T05:33:13;12.90;;;7.33;;
22080;SDS011;11207;59.512;18.050;2023-02-01T05:35:39;9.17;;;6.67;;
22080;SDS011;11207;59.512;18.050;2023-02-01T05:38:04;9.87;;;6.57;;
22080;SDS011;11207;59.512;18.050;2023-02-01T05:40:30;9.60;;;7.00;;
22080;SDS011;11207;59.512;18.050;2023-02-01T05:42:55;11.77;;;6.30;;
22080;SDS011;11207;59.512;18.050;2023-02-01T05:45:21;9.13;;;6.67;;
22080;SDS011;11207;59.512;18.050;2023-02-01T05:47:46;7.83;;;6.20;;
22080;SDS011;11207;59.512;18.050;2023-02-01T05:50:12;11.10;;;6.40;;
22080;SDS011;11207;59.512;18.050;2023-02-01T05:52:38;8.93;;;6.33;;
22080;SDS011;11207;59.512;18.050;2023-02-01T05:55:03;10.67;;;7.77;;
22080;SDS011;11207;59.512;18.050;2023-02-01T05:57:29;8.43;;;6.17;;
22080;SDS011;11207;59.512;18.050;2023-02-01T05:59:55;11.60;;;6.23;;
22080;SDS011;11207;59.512;18.050;2023-02-01T06:02:21;9.47;;;5.43;;
22080;SDS011;11207;59.512;18.050;2023-02-01T06:04:49;8.73;;;6.07;;
22080;SDS011;11207;59.512;18.050;2023-02-01T06:07:15;9.73;;;6.40;;
22080;SDS011;11207;59.512;18.050;2023-02-01T06:09:40;11.40;;;6.10;;
22080;SDS011;11207;59.512;18.050;2023-02-01T06:12:06;8.87;;;6.20;;
22080;SDS011;11207;59.512;18.050;2023-02-01T06:14:32;6.53;;;5.80;;
22080;SDS011;11207;59.512;18.050;2023-02-01T06:16:57;9.03;;;6.23;;
22080;SDS011;11207;59.512;18.050;2023-02-01T06:19:23;9.93;;;6.37;;
22080;SDS011;11207;59.512;18.050;2023-02-01T06:21:49;8.30;;;6.53;;
22080;SDS011;11207;59.512;18.050;2023-02-01T06:24:14;6.23;;;5.60;;
22080;SDS011;11207;59.512;18.050;2023-02-01T06:26:40;7.10;;;6.00;;
22080;SDS011;11207;59.512;18.050;2023-02-01T06:29:06;8.13;;;5.87;;
22080;SDS011;11207;59.512;18.050;2023-02-01T06:31:34;7.40;;;6.70;;
22080;SDS011;11207;59.512;18.050;2023-02-01T06:34:00;12.67;;;8.30;;
22080;SDS011;11207;59.512;18.050;2023-02-01T06:36:25;9.93;;;7.60;;
22080;SDS011;11207;59.512;18.050;2023-02-01T06:38:51;10.87;;;7.13;;
22080;SDS011;11207;59.512;18.050;2023-02-01T06:41:17;9.57;;;6.40;;
22080;SDS011;11207;59.512;18.050;2023-02-01T06:43:45;14.07;;;6.77;;
22080;SDS011;11207;59.512;18.050;2023-02-01T06:46:11;9.53;;;7.20;;
22080;SDS011;11207;59.512;18.050;2023-02-01T06:48:38;9.07;;;6.50;;
22080;SDS011;11207;59.512;18.050;2023-02-01T06:51:03;10.93;;;7.20;;
22080;SDS011;11207;59.512;18.050;2023-02-01T06:53:30;8.60;;;6.93;;
22080;SDS011;11207;59.512;18.050;2023-02-01T06:56:00;8.03;;;5.83;;
22080;SDS011;11207;59.512;18.050;2023-02-01T06:58:28;10.67;;;6.83;;
22080;SDS011;11207;59.512;18.050;2023-02-01T07:00:55;9.17;;;6.27;;
22080;SDS011;11207;59.512;18.050;2023-02-01T07:03:21;9.17;;;6.87;;
22080;SDS011;11207;59.512;18.050;2023-02-01T07:05:46;9.23;;;6.10;;
22080;SDS011;11207;59.512;18.050;2023-02-01T07:08:12;9.03;;;6.67;;
22080;SDS011;11207;59.512;18.050;2023-02-01T07:10:38;8.23;;;6.23;;
22080;SDS011;11207;59.512;18.050;2023-02-01T07:13:03;8.80;;;6.17;;
22080;SDS011;11207;59.512;18.050;2023-02-01T07:15:29;12.50;;;6.67;;
22080;SDS011;11207;59.512;18.050;2023-02-01T07:17:55;8.37;;;6.00;;
22080;SDS011;11207;59.512;18.050;2023-02-01T07:20:21;11.67;;;6.40;;
22080;SDS011;11207;59.512;18.050;2023-02-01T07:22:47;8.70;;;6.27;;
22080;SDS011;11207;59.512;18.050;2023-02-01T07:25:13;9.07;;;6.00;;
22080;SDS011;11207;59.512;18.050;2023-02-01T07:27:38;8.33;;;6.23;;
22080;SDS011;11207;59.512;18.050;2023-02-01T07:30:04;13.07;;;6.43;;
22080;SDS011;11207;59.512;18.050;2023-02-01T07:32:30;12.37;;;6.63;;
22080;SDS011;11207;59.512;18.050;2023-02-01T07:34:57;16.80;;;7.23;;
22080;SDS011;11207;59.512;18.050;2023-02-01T07:37:22;10.17;;;7.20;;
22080;SDS011;11207;59.512;18.050;2023-02-01T07:39:49;12.23;;;6.63;;
22080;SDS011;11207;59.512;18.050;2023-02-01T07:42:15;11.97;;;8.20;;
22080;SDS011;11207;59.512;18.050;2023-02-01T07:44:41;9.87;;;7.70;;
22080;SDS011;11207;59.512;18.050;2023-02-01T07:47:06;16.90;;;7.87;;
22080;SDS011;11207;59.512;18.050;2023-02-01T07:49:32;10.80;;;6.93;;
22080;SDS011;11207;59.512;18.050;2023-02-01T07:51:57;13.73;;;7.83;;
22080;SDS011;11207;59.512;18.050;2023-02-01T07:54:23;10.60;;;7.30;;
22080;SDS011;11207;59.512;18.050;2023-02-01T07:56:49;9.20;;;6.37;;
22080;SDS011;11207;59.512;18.050;2023-02-01T07:59:14;11.40;;;7.30;;
22080;SDS011;11207;59.512;18.050;2023-02-01T08:01:40;11.90;;;6.80;;
22080;SDS011;11207;59.512;18.050;2023-02-01T08:04:07;12.43;;;6.20;;
22080;SDS011;11207;59.512;18.050;2023-02-01T08:06:37;12.63;;;6.47;;
22080;SDS011;11207;59.512;18.050;2023-02-01T08:09:04;10.93;;;5.73;;
22080;SDS011;11207;59.512;18.050;2023-02-01T08:11:30;9.93;;;6.10;;
22080;SDS011;11207;59.512;18.050;2023-02-01T08:13:57;11.97;;;6.00;;
22080;SDS011;11207;59.512;18.050;2023-02-01T08:16:23;12.47;;;6.53;;
22080;SDS011;11207;59.512;18.050;2023-02-01T08:18:50;12.67;;;6.00;;
22080;SDS011;11207;59.512;18.050;2023-02-01T08:21:18;6.90;;;6.00;;
22080;SDS011;11207;59.512;18.050;2023-02-01T08:23:47;7.83;;;6.33;;
22080;SDS011;11207;59.512;18.050;2023-02-01T08:26:22;10.87;;;6.27;;
22080;SDS011;11207;59.512;18.050;2023-02-01T08:28:53;6.23;;;5.30;;
22080;SDS011;11207;59.512;18.050;2023-02-01T08:31:22;8.63;;;6.20;;
22080;SDS011;11207;59.512;18.050;2023-02-01T08:33:53;9.13;;;5.73;;
22080;SDS011;11207;59.512;18.050;2023-02-01T08:36:20;6.77;;;5.70;;
22080;SDS011;11207;59.512;18.050;2023-02-01T08:38:47;7.50;;;5.93;;
22080;SDS011;11207;59.512;18.050;2023-02-01T08:41:14;10.67;;;5.73;;
22080;SDS011;11207;59.512;18.050;2023-02-01T08:43:41;8.47;;;5.53;;
22080;SDS011;11207;59.512;18.050;2023-02-01T08:46:08;8.70;;;5.90;;
22080;SDS011;11207;59.512;18.050;2023-02-01T08:48:35;9.13;;;5.13;;
22080;SDS011;11207;59.512;18.050;2023-02-01T08:51:02;8.13;;;5.70;;
22080;SDS011;11207;59.512;18.050;2023-02-01T08:53:29;11.50;;;5.87;;
22080;SDS011;11207;59.512;18.050;2023-02-01T08:55:54;9.80;;;6.63;;
22080;SDS011;11207;59.512;18.050;2023-02-01T08:58:20;13.70;;;6.20;;
22080;SDS011;11207;59.512;18.050;2023-02-01T09:00:47;12.73;;;5.73;;
22080;SDS011;11207;59.512;18.050;2023-02-01T09:03:13;10.73;;;6.00;;
22080;SDS011;11207;59.512;18.050;2023-02-01T09:05:39;11.33;;;6.30;;
22080;SDS011;11207;59.512;18.050;2023-02-01T09:08:06;10.97;;;6.37;;
22080;SDS011;11207;59.512;18.050;2023-02-01T09:10:32;8.40;;;5.80;;
22080;SDS011;11207;59.512;18.050;2023-02-01T09:12:58;9.90;;;6.43;;
22080;SDS011;11207;59.512;18.050;2023-02-01T09:15:24;10.03;;;6.50;;
22080;SDS011;11207;59.512;18.050;2023-02-01T09:17:51;10.20;;;6.43;;
22080;SDS011;11207;59.512;18.050;2023-02-01T09:20:18;9.37;;;6.43;;
22080;SDS011;11207;59.512;18.050;2023-02-01T09:22:45;12.57;;;5.97;;
22080;SDS011;11207;59.512;18.050;2023-02-01T09:25:11;10.00;;;6.43;;
22080;SDS011;11207;59.512;18.050;2023-02-01T09:27:36;10.37;;;5.83;;
22080;SDS011;11207;59.512;18.050;2023-02-01T09:30:03;8.30;;;5.80;;
22080;SDS011;11207;59.512;18.050;2023-02-01T09:32:29;8.77;;;5.40;;
22080;SDS011;11207;59.512;18.050;2023-02-01T09:34:55;14.03;;;5.53;;
22080;SDS011;11207;59.512;18.050;2023-02-01T09:37:21;8.13;;;5.80;;
22080;SDS011;11207;59.512;18.050;2023-02-01T09:39:47;8.40;;;6.07;;
22080;SDS011;11207;59.512;18.050;2023-02-01T09:48:02;7.87;;;5.67;;
22080;SDS011;11207;59.512;18.050;2023-02-01T09:50:39;7.57;;;5.53;;
22080;SDS011;11207;59.512;18.050;2023-02-01T09:53:12;6.40;;;5.77;;
22080;SDS011;11207;59.512;18.050;2023-02-01T09:55:48;9.70;;;5.90;;
22080;SDS011;11207;59.512;18.050;2023-02-01T09:58:37;13.30;;;6.47;;
22080;SDS011;11207;59.512;18.050;2023-02-01T10:01:20;10.87;;;6.10;;
22080;SDS011;11207;59.512;18.050;2023-02-01T10:03:51;10.23;;;6.23;;
22080;SDS011;11207;59.512;18.050;2023-02-01T10:09:07;9.47;;;6.20;;
22080;SDS011;11207;59.512;18.050;2023-02-01T10:17:50;11.33;;;6.37;;
22080;SDS011;11207;59.512;18.050;2023-02-01T10:23:39;11.03;;;6.43;;
22080;SDS011;11207;59.512;18.050;2023-02-01T10:26:19;9.70;;;5.50;;
22080;SDS011;11207;59.512;18.050;2023-02-01T10:28:53;9.17;;;5.87;;
22080;SDS011;11207;59.512;18.050;2023-02-01T10:31:30;10.83;;;6.47;;
22080;SDS011;11207;59.512;18.050;2023-02-01T10:33:59;9.17;;;6.00;;
22080;SDS011;11207;59.512;18.050;2023-02-01T10:36:40;11.60;;;6.60;;
22080;SDS011;11207;59.512;18.050;2023-02-01T10:39:10;11.53;;;6.63;;
22080;SDS011;11207;59.512;18.050;2023-02-01T10:41:39;8.63;;;5.90;;
22080;SDS011;11207;59.512;18.050;2023-02-01T10:44:27;9.23;;;5.63;;
22080;SDS011;11207;59.512;18.050;2023-02-01T10:46:53;10.90;;;5.57;;
22080;SDS011;11207;59.512;18.050;2023-02-01T10:54:55;9.57;;;6.03;;
22080;SDS011;11207;59.512;18.050;2023-02-01T10:57:21;11.07;;;5.60;;
22080;SDS011;11207;59.512;18.050;2023-02-01T10:59:54;8.93;;;5.53;;
22080;SDS011;11207;59.512;18.050;2023-02-01T11:02:25;8.03;;;5.57;;
22080;SDS011;11207;59.512;18.050;2023-02-01T11:05:04;9.17;;;5.67;;
22080;SDS011;11207;59.512;18.050;2023-02-01T11:07:34;5.80;;;5.20;;
22080;SDS011;11207;59.512;18.050;2023-02-01T11:10:02;8.27;;;5.50;;
22080;SDS011;11207;59.512;18.050;2023-02-01T11:12:30;11.23;;;5.87;;
22080;SDS011;11207;59.512;18.050;2023-02-01T11:15:02;10.90;;;5.83;;
22080;SDS011;11207;59.512;18.050;2023-02-01T11:17:46;8.53;;;5.80;;
22080;SDS011;11207;59.512;18.050;2023-02-01T11:20:32;8.57;;;5.57;;
22080;SDS011;11207;59.512;18.050;2023-02-01T11:23:05;8.47;;;6.17;;
22080;SDS011;11207;59.512;18.050;2023-02-01T11:25:36;9.40;;;6.10;;
22080;SDS011;11207;59.512;18.050;2023-02-01T11:28:02;8.30;;;6.13;;
22080;SDS011;11207;59.512;18.050;2023-02-01T11:32:58;9.97;;;6.03;;
22080;SDS011;11207;59.512;18.050;2023-02-01T11:35:24;10.33;;;5.70;;
22080;SDS011;11207;59.512;18.050;2023-02-01T11:37:55;8.13;;;5.90;;
22080;SDS011;11207;59.512;18.050;2023-02-01T11:40:36;12.13;;;5.80;;
22080;SDS011;11207;59.512;18.050;2023-02-01T11:43:17;7.40;;;5.30;;
22080;SDS011;11207;59.512;18.050;2023-02-01T11:45:53;7.53;;;4.90;;
22080;SDS011;11207;59.512;18.050;2023-02-01T11:48:20;7.67;;;5.23;;
22080;SDS011;11207;59.512;18.050;2023-02-01T11:59:18;8.93;;;5.47;;
22080;SDS011;11207;59.512;18.050;2023-02-01T12:05:37;7.07;;;4.90;;
22080;SDS011;11207;59.512;18.050;2023-02-01T12:19:14;4.57;;;4.07;;
22080;SDS011;11207;59.512;18.050;2023-02-01T12:24:44;4.43;;;3.90;;
22080;SDS011;11207;59.512;18.050;2023-02-01T12:41:08;7.50;;;4.00;;
22080;SDS011;11207;59.512;18.050;2023-02-01T12:46:31;4.40;;;3.97;;
22080;SDS011;11207;59.512;18.050;2023-02-01T12:49:11;9.97;;;4.30;;
22080;SDS011;11207;59.512;18.050;2023-02-01T12:51:50;5.67;;;3.97;;
22080;SDS011;11207;59.512;18.050;2023-02-01T12:57:05;4.87;;;3.87;;
22080;SDS011;11207;59.512;18.050;2023-02-01T13:00:25;4.93;;;3.60;;
22080;SDS011;11207;59.512;18.050;2023-02-01T13:02:42;4.00;;;3.70;;
22080;SDS011;11207;59.512;18.050;2023-02-01T13:05:22;4.10;;;3.43;;
22080;SDS011;11207;59.512;18.050;2023-02-01T13:10:36;5.67;;;3.80;;
22080;SDS011;11207;59.512;18.050;2023-02-01T13:13:21;3.70;;;3.40;;
22080;SDS011;11207;59.512;18.050;2023-02-01T13:15:56;6.00;;;3.67;;
22080;SDS011;11207;59.512;18.050;2023-02-01T13:18:43;4.50;;;3.47;;
22080;SDS011;11207;59.512;18.050;2023-02-01T13:21:22;3.60;;;3.40;;
22080;SDS011;11207;59.512;18.050;2023-02-01T13:23:51;5.27;;;3.80;;
22080;SDS011;11207;59.512;18.050;2023-02-01T13:26:18;6.27;;;3.60;;
22080;SDS011;11207;59.512;18.050;2023-02-01T13:39:34;5.63;;;4.00;;
22080;SDS011;11207;59.512;18.050;2023-02-01T13:43:04;4.77;;;4.07;;
22080;SDS011;11207;59.512;18.050;2023-02-01T13:45:18;4.23;;;3.80;;
22080;SDS011;11207;59.512;18.050;2023-02-01T13:47:47;5.13;;;3.67;;
22080;SDS011;11207;59.512;18.050;2023-02-01T13:50:37;4.33;;;3.80;;
22080;SDS011;11207;59.512;18.050;2023-02-01T13:55:38;5.70;;;4.17;;
22080;SDS011;11207;59.512;18.050;2023-02-01T13:58:18;6.77;;;3.97;;
22080;SDS011;11207;59.512;18.050;2023-02-01T14:01:30;6.73;;;3.80;;
22080;SDS011;11207;59.512;18.050;2023-02-01T14:03:49;6.97;;;4.00;;
22080;SDS011;11207;59.512;18.050;2023-02-01T14:11:42;4.57;;;3.90;;
22080;SDS011;11207;59.512;18.050;2023-02-01T14:16:39;4.00;;;3.60;;
22080;SDS011;11207;59.512;18.050;2023-02-01T14:19:09;5.23;;;3.70;;
22080;SDS011;11207;59.512;18.050;2023-02-01T14:21:55;4.10;;;3.70;;
22080;SDS011;11207;59.512;18.050;2023-02-01T14:26:54;4.80;;;4.30;;
22080;SDS011;11207;59.512;18.050;2023-02-01T14:34:31;6.93;;;4.03;;
22080;SDS011;11207;59.512;18.050;2023-02-01T14:37:08;4.97;;;4.00;;
22080;SDS011;11207;59.512;18.050;2023-02-01T14:47:45;4.20;;;3.80;;
22080;SDS011;11207;59.512;18.050;2023-02-01T15:00:57;5.43;;;3.90;;
22080;SDS011;11207;59.512;18.050;2023-02-01T15:06:02;4.20;;;3.80;;
22080;SDS011;11207;59.512;18.050;2023-02-01T15:08:32;6.53;;;3.97;;
22080;SDS011;11207;59.512;18.050;2023-02-01T15:11:02;8.13;;;4.20;;
22080;SDS011;11207;59.512;18.050;2023-02-01T15:13:36;5.10;;;4.00;;
22080;SDS011;11207;59.512;18.050;2023-02-01T15:16:12;4.67;;;4.23;;
22080;SDS011;11207;59.512;18.050;2023-02-01T15:18:39;4.60;;;4.27;;
22080;SDS011;11207;59.512;18.050;2023-02-01T15:21:06;4.70;;;4.27;;
22080;SDS011;11207;59.512;18.050;2023-02-01T15:23:42;6.03;;;4.10;;
22080;SDS011;11207;59.512;18.050;2023-02-01T15:26:07;5.00;;;4.17;;
22080;SDS011;11207;59.512;18.050;2023-02-01T15:28:33;6.40;;;4.50;;
22080;SDS011;11207;59.512;18.050;2023-02-01T15:31:00;4.63;;;3.90;;
22080;SDS011;11207;59.512;18.050;2023-02-01T15:33:28;6.23;;;4.10;;
22080;SDS011;11207;59.512;18.050;2023-02-01T15:36:08;5.97;;;4.60;;
22080;SDS011;11207;59.512;18.050;2023-02-01T15:38:42;4.40;;;4.00;;
22080;SDS011;11207;59.512;18.050;2023-02-01T15:41:15;5.70;;;4.20;;
22080;SDS011;11207;59.512;18.050;2023-02-01T15:46:31;7.85;;;4.70;;
22080;SDS011;11207;59.512;18.050;2023-02-01T15:49:01;5.07;;;4.43;;
22080;SDS011;11207;59.512;18.050;2023-02-01T15:51:29;6.53;;;4.23;;
22080;SDS011;11207;59.512;18.050;2023-02-01T15:56:24;6.03;;;4.20;;
22080;SDS011;11207;59.512;18.050;2023-02-01T15:58:53;6.17;;;4.33;;
22080;SDS011;11207;59.512;18.050;2023-02-01T16:01:22;6.20;;;4.40;;
22080;SDS011;11207;59.512;18.050;2023-02-01T16:03:48;6.87;;;4.40;;
22080;SDS011;11207;59.512;18.050;2023-02-01T16:08:53;4.97;;;4.27;;
22080;SDS011;11207;59.512;18.050;2023-02-01T16:11:26;4.20;;;3.90;;
22080;SDS011;11207;59.512;18.050;2023-02-01T16:13:55;5.37;;;4.33;;
22080;SDS011;11207;59.512;18.050;2023-02-01T16:16:25;7.90;;;4.50;;
22080;SDS011;11207;59.512;18.050;2023-02-01T16:18:52;5.00;;;4.60;;
22080;SDS011;11207;59.512;18.050;2023-02-01T16:21:18;7.10;;;4.30;;
22080;SDS011;11207;59.512;18.050;2023-02-01T16:23:47;5.03;;;4.57;;
22080;SDS011;11207;59.512;18.050;2023-02-01T16:26:15;7.43;;;4.90;;
22080;SDS011;11207;59.512;18.050;2023-02-01T16:28:41;5.63;;;4.90;;
22080;SDS011;11207;59.512;18.050;2023-02-01T16:31:09;7.43;;;4.70;;
22080;SDS011;11207;59.512;18.050;2023-02-01T16:33:49;5.83;;;4.90;;
22080;SDS011;11207;59.512;18.050;2023-02-01T16:36:15;5.10;;;4.60;;
22080;SDS011;11207;59.512;18.050;2023-02-01T16:38:42;5.77;;;4.70;;
22080;SDS011;11207;59.512;18.050;2023-02-01T16:41:12;6.87;;;4.90;;
22080;SDS011;11207;59.512;18.050;2023-02-01T16:43:38;6.30;;;4.80;;
22080;SDS011;11207;59.512;18.050;2023-02-01T16:48:56;7.67;;;4.73;;
22080;SDS011;11207;59.512;18.050;2023-02-01T16:51:36;5.53;;;5.00;;
22080;SDS011;11207;59.512;18.050;2023-02-01T16:54:22;8.17;;;5.23;;
22080;SDS011;11207;59.512;18.050;2023-02-01T16:56:48;7.13;;;5.67;;
22080;SDS011;11207;59.512;18.050;2023-02-01T16:59:15;10.03;;;5.60;;
22080;SDS011;11207;59.512;18.050;2023-02-01T17:01:40;5.83;;;4.83;;
22080;SDS011;11207;59.512;18.050;2023-02-01T17:04:07;6.37;;;5.40;;
22080;SDS011;11207;59.512;18.050;2023-02-01T17:06:36;8.93;;;5.93;;
22080;SDS011;11207;59.512;18.050;2023-02-01T17:09:03;9.37;;;5.37;;
22080;SDS011;11207;59.512;18.050;2023-02-01T17:11:29;5.80;;;5.30;;
22080;SDS011;11207;59.512;18.050;2023-02-01T17:13:56;7.75;;;5.50;;
22080;SDS011;11207;59.512;18.050;2023-02-01T17:16:42;7.30;;;4.83;;
22080;SDS011;11207;59.512;18.050;2023-02-01T17:19:11;6.00;;;4.60;;
22080;SDS011;11207;59.512;18.050;2023-02-01T17:21:44;6.20;;;4.67;;
22080;SDS011;11207;59.512;18.050;2023-02-01T17:24:12;5.13;;;4.53;;
22080;SDS011;11207;59.512;18.050;2023-02-01T17:26:39;4.70;;;4.30;;
22080;SDS011;11207;59.512;18.050;2023-02-01T17:29:05;6.53;;;4.63;;
22080;SDS011;11207;59.512;18.050;2023-02-01T17:31:32;6.97;;;4.77;;